sensor_id;sensor_type;location;lat;lon;timestamp;pressure;altitude;pressure_sealevel;temperature;humidity
11888;BME280;6003;42.756;23.130;2023-02-13T00:00:58;151895.22;;;-2.02;100.00
11888;BME280;6003;42.756;23.130;2023-02-13T00:03:25;151895.22;;;-2.02;100.00
11888;BME280;6003;42.756;23.130;2023-02-13T00:05:52;151890.00;;;-2.04;100.00
11888;BME280;6003;42.756;23.130;2023-02-13T00:08:19;151910.91;;;-1.96;100.00
11888;BME280;6003;42.756;23.130;2023-02-13T00:10:47;151913.53;;;-1.95;100.00
11888;BME280;6003;42.756;23.130;2023-02-13T00:13:15;151914.84;;;-1.94;100.00
11888;BME280;6003;42.756;23.130;2023-02-13T00:15:41;151899.16;;;-2.00;100.00
11888;BME280;6003;42.756;23.130;2023-02-13T00:18:08;151917.44;;;-1.93;100.00
11888;BME280;6003;42.756;23.130;2023-02-13T00:20:35;151922.69;;;-1.91;100.00
11888;BME280;6003;42.756;23.130;2023-02-13T00:23:02;151912.25;;;-1.95;100.00
11888;BME280;6003;42.756;23.130;2023-02-13T00:25:30;151923.97;;;-1.91;100.00
11888;BME280;6003;42.756;23.130;2023-02-13T00:27:58;151905.69;;;-1.98;100.00
11888;BME280;6003;42.756;23.130;2023-02-13T00:30:25;151875.63;;;-2.10;100.00
11888;BME280;6003;42.756;23.130;2023-02-13T00:32:52;151850.75;;;-2.19;100.00
11888;BME280;6003;42.756;23.130;2023-02-13T00:35:19;151879.53;;;-2.08;100.00
11888;BME280;6003;42.756;23.130;2023-02-13T00:37:46;151884.78;;;-2.06;100.00
11888;BME280;6003;42.756;23.130;2023-02-13T00:40:13;151879.53;;;-2.08;100.00
11888;BME280;6003;42.756;23.130;2023-02-13T00:42:40;151897.84;;;-2.01;100.00
11888;BME280;6003;42.756;23.130;2023-02-13T00:45:08;151886.06;;;-2.06;100.00
11888;BME280;6003;42.756;23.130;2023-02-13T00:47:35;151875.63;;;-2.10;100.00
11888;BME280;6003;42.756;23.130;2023-02-13T00:50:03;151892.59;;;-2.03;100.00
11888;BME280;6003;42.756;23.130;2023-02-13T00:52:29;151892.59;;;-2.03;100.00
11888;BME280;6003;42.756;23.130;2023-02-13T00:54:56;151912.25;;;-1.95;100.00
11888;BME280;6003;42.756;23.130;2023-02-13T00:57:23;151935.78;;;-1.86;100.00
11888;BME280;6003;42.756;23.130;2023-02-13T00:59:50;151929.22;;;-1.89;100.00
11888;BME280;6003;42.756;23.130;2023-02-13T01:02:18;151926.63;;;-1.90;100.00
11888;BME280;6003;42.756;23.130;2023-02-13T01:04:45;151929.22;;;-1.89;100.00
11888;BME280;6003;42.756;23.130;2023-02-13T01:07:12;151927.94;;;-1.89;100.00
11888;BME280;6003;42.756;23.130;2023-02-13T01:09:39;151918.75;;;-1.93;100.00
11888;BME280;6003;42.756;23.130;2023-02-13T01:12:06;151927.94;;;-1.89;100.00
11888;BME280;6003;42.756;23.130;2023-02-13T01:14:33;151923.97;;;-1.91;100.00
11888;BME280;6003;42.756;23.130;2023-02-13T01:17:00;151913.53;;;-1.95;100.00
11888;BME280;6003;42.756;23.130;2023-02-13T01:19:28;151904.41;;;-1.98;100.00
11888;BME280;6003;42.756;23.130;2023-02-13T01:22:13;151884.78;;;-2.06;100.00
11888;BME280;6003;42.756;23.130;2023-02-13T01:24:40;151887.38;;;-2.05;100.00
11888;BME280;6003;42.756;23.130;2023-02-13T01:27:07;151893.91;;;-2.02;100.00
11888;BME280;6003;42.756;23.130;2023-02-13T01:29:34;151892.59;;;-2.03;100.00
11888;BME280;6003;42.756;23.130;2023-02-13T01:32:01;151879.53;;;-2.08;100.00
11888;BME280;6003;42.756;23.130;2023-02-13T01:34:31;151858.59;;;-2.16;100.00
11888;BME280;6003;42.756;23.130;2023-02-13T01:36:58;151852.06;;;-2.19;100.00
11888;BME280;6003;42.756;23.130;2023-02-13T01:39:24;151827.22;;;-2.29;100.00
11888;BME280;6003;42.756;23.130;2023-02-13T01:41:52;151811.53;;;-2.35;100.00
11888;BME280;6003;42.756;23.130;2023-02-13T01:44:47;151793.22;;;-2.42;100.00
11888;BME280;6003;42.756;23.130;2023-02-13T01:47:19;151768.41;;;-2.52;100.00
11888;BME280;6003;42.756;23.130;2023-02-13T01:49:49;151756.63;;;-2.56;100.00
11888;BME280;6003;42.756;23.130;2023-02-13T01:52:19;151751.41;;;-2.58;100.00
11888;BME280;6003;42.756;23.130;2023-02-13T01:54:46;151718.72;;;-2.71;100.00
11888;BME280;6003;42.756;23.130;2023-02-13T01:57:15;151735.75;;;-2.64;100.00
11888;BME280;6003;42.756;23.130;2023-02-13T01:59:46;151739.63;;;-2.63;100.00
11888;BME280;6003;42.756;23.130;2023-02-13T02:02:13;151752.72;;;-2.58;100.00
11888;BME280;6003;42.756;23.130;2023-02-13T02:04:42;151756.63;;;-2.56;100.00
11888;BME280;6003;42.756;23.130;2023-02-13T02:07:20;151757.97;;;-2.56;100.00
11888;BME280;6003;42.756;23.130;2023-02-13T02:09:49;151776.25;;;-2.48;100.00
11888;BME280;6003;42.756;23.130;2023-02-13T02:12:53;151799.75;;;-2.39;100.00
11888;BME280;6003;42.756;23.130;2023-02-13T02:15:24;151780.19;;;-2.47;100.00
11888;BME280;6003;42.756;23.130;2023-02-13T02:17:51;151782.78;;;-2.46;100.00
11888;BME280;6003;42.756;23.130;2023-02-13T02:20:26;151777.53;;;-2.48;100.00
11888;BME280;6003;42.756;23.130;2023-02-13T02:23:16;151772.34;;;-2.50;100.00
11888;BME280;6003;42.756;23.130;2023-02-13T02:35:08;151764.50;;;-2.53;100.00
11888;BME280;6003;42.756;23.130;2023-02-13T02:37:50;151772.34;;;-2.50;100.00
11888;BME280;6003;42.756;23.130;2023-02-13T02:40:24;151767.09;;;-2.52;100.00
11888;BME280;6003;42.756;23.130;2023-02-13T02:43:05;151795.88;;;-2.41;100.00
11888;BME280;6003;42.756;23.130;2023-02-13T02:45:40;151790.63;;;-2.43;100.00
11888;BME280;6003;42.756;23.130;2023-02-13T02:48:16;151795.88;;;-2.41;100.00
11888;BME280;6003;42.756;23.130;2023-02-13T02:51:13;151793.22;;;-2.42;100.00
11888;BME280;6003;42.756;23.130;2023-02-13T02:53:47;151795.88;;;-2.41;100.00
11888;BME280;6003;42.756;23.130;2023-02-13T02:56:19;151797.16;;;-2.40;100.00
11888;BME280;6003;42.756;23.130;2023-02-13T02:58:51;151803.69;;;-2.38;100.00
11888;BME280;6003;42.756;23.130;2023-02-13T03:01:39;151819.38;;;-2.32;100.00
11888;BME280;6003;42.756;23.130;2023-02-13T03:04:27;151816.78;;;-2.33;100.00
11888;BME280;6003;42.756;23.130;2023-02-13T03:07:17;151799.75;;;-2.39;100.00
11888;BME280;6003;42.756;23.130;2023-02-13T03:09:47;151784.06;;;-2.45;100.00
11888;BME280;6003;42.756;23.130;2023-02-13T03:12:36;151777.53;;;-2.48;100.00
11888;BME280;6003;42.756;23.130;2023-02-13T03:15:22;151782.78;;;-2.46;100.00
11888;BME280;6003;42.756;23.130;2023-02-13T03:17:51;151791.91;;;-2.42;100.00
11888;BME280;6003;42.756;23.130;2023-02-13T03:20:41;151776.25;;;-2.48;100.00
11888;BME280;6003;42.756;23.130;2023-02-13T03:23:35;151744.88;;;-2.61;100.00
11888;BME280;6003;42.756;23.130;2023-02-13T03:26:31;151763.16;;;-2.54;100.00
11888;BME280;6003;42.756;23.130;2023-02-13T03:29:13;151756.63;;;-2.56;100.00
11888;BME280;6003;42.756;23.130;2023-02-13T03:32:08;151773.63;;;-2.50;100.00
11888;BME280;6003;42.756;23.130;2023-02-13T03:34:40;151793.22;;;-2.42;100.00
11888;BME280;6003;42.756;23.130;2023-02-13T03:37:29;151794.56;;;-2.41;100.00
11888;BME280;6003;42.756;23.130;2023-02-13T03:40:22;151785.38;;;-2.45;100.00
11888;BME280;6003;42.756;23.130;2023-02-13T03:42:53;151760.56;;;-2.55;100.00
11888;BME280;6003;42.756;23.130;2023-02-13T03:45:22;151723.97;;;-2.69;100.00
11888;BME280;6003;42.756;23.130;2023-02-13T03:48:09;151730.50;;;-2.66;100.00
11888;BME280;6003;42.756;23.130;2023-02-13T03:50:58;151714.81;;;-2.73;100.00
11888;BME280;6003;42.756;23.130;2023-02-13T03:53:26;151722.66;;;-2.69;100.00
11888;BME280;6003;42.756;23.130;2023-02-13T03:55:57;151730.50;;;-2.66;100.00
11888;BME280;6003;42.756;23.130;2023-02-13T03:58:45;151725.25;;;-2.68;100.00
11888;BME280;6003;42.756;23.130;2023-02-13T04:01:34;151704.34;;;-2.77;100.00
11888;BME280;6003;42.756;23.130;2023-02-13T04:04:07;151680.81;;;-2.86;100.00
11888;BME280;6003;42.756;23.130;2023-02-13T04:06:41;151671.69;;;-2.89;100.00
11888;BME280;6003;42.756;23.130;2023-02-13T04:09:12;151671.69;;;-2.89;100.00
11888;BME280;6003;42.756;23.130;2023-02-13T04:11:46;151688.66;;;-2.83;100.00
11888;BME280;6003;42.756;23.130;2023-02-13T04:14:19;151693.91;;;-2.81;100.00
11888;BME280;6003;42.756;23.130;2023-02-13T04:16:50;151680.81;;;-2.86;100.00
11888;BME280;6003;42.756;23.130;2023-02-13T04:19:19;151686.06;;;-2.84;100.00
11888;BME280;6003;42.756;23.130;2023-02-13T04:21:50;151683.47;;;-2.85;100.00
11888;BME280;6003;42.756;23.130;2023-02-13T04:24:21;151686.06;;;-2.84;100.00
11888;BME280;6003;42.756;23.130;2023-02-13T04:26:49;151691.31;;;-2.82;100.00
11888;BME280;6003;42.756;23.130;2023-02-13T04:29:16;151688.66;;;-2.83;100.00
11888;BME280;6003;42.756;23.130;2023-02-13T04:31:43;151680.81;;;-2.86;100.00
11888;BME280;6003;42.756;23.130;2023-02-13T04:34:10;151673.00;;;-2.89;100.00
11888;BME280;6003;42.756;23.130;2023-02-13T04:36:37;151659.91;;;-2.94;100.00
11888;BME280;6003;42.756;23.130;2023-02-13T04:39:04;151652.06;;;-2.97;100.00
11888;BME280;6003;42.756;23.130;2023-02-13T04:41:31;151635.09;;;-3.04;100.00
11888;BME280;6003;42.756;23.130;2023-02-13T04:44:00;151620.72;;;-3.09;100.00
11888;BME280;6003;42.756;23.130;2023-02-13T04:46:27;151615.50;;;-3.11;100.00
11888;BME280;6003;42.756;23.130;2023-02-13T04:48:53;151594.59;;;-3.20;100.00
11888;BME280;6003;42.756;23.130;2023-02-13T04:51:20;151594.59;;;-3.20;100.00
11888;BME280;6003;42.756;23.130;2023-02-13T04:53:47;151590.69;;;-3.21;100.00
11888;BME280;6003;42.756;23.130;2023-02-13T04:56:14;151578.91;;;-3.26;100.00
11888;BME280;6003;42.756;23.130;2023-02-13T04:58:41;151575.03;;;-3.27;100.00
11888;BME280;6003;42.756;23.130;2023-02-13T05:01:13;151576.31;;;-3.27;100.00
11888;BME280;6003;42.756;23.130;2023-02-13T05:03:40;151575.03;;;-3.27;100.00
11888;BME280;6003;42.756;23.130;2023-02-13T05:06:06;151597.22;;;-3.19;100.00
11888;BME280;6003;42.756;23.130;2023-02-13T05:08:33;151628.56;;;-3.06;100.00
11888;BME280;6003;42.756;23.130;2023-02-13T05:11:00;151637.69;;;-3.03;100.00
11888;BME280;6003;42.756;23.130;2023-02-13T05:13:27;151646.88;;;-2.99;100.00
11888;BME280;6003;42.756;23.130;2023-02-13T05:15:54;151627.28;;;-3.07;100.00
11888;BME280;6003;42.756;23.130;2023-02-13T05:18:22;151641.63;;;-3.01;100.00
11888;BME280;6003;42.756;23.130;2023-02-13T05:20:49;151665.16;;;-2.92;100.00
11888;BME280;6003;42.756;23.130;2023-02-13T05:23:30;151674.28;;;-2.88;100.00
11888;BME280;6003;42.756;23.130;2023-02-13T05:25:57;151663.84;;;-2.92;100.00
11888;BME280;6003;42.756;23.130;2023-02-13T05:28:24;151678.22;;;-2.87;100.00
11888;BME280;6003;42.756;23.130;2023-02-13T05:31:08;151680.81;;;-2.86;100.00
11888;BME280;6003;42.756;23.130;2023-02-13T05:33:36;151691.31;;;-2.82;100.00
11888;BME280;6003;42.756;23.130;2023-02-13T05:36:04;151691.31;;;-2.82;100.00
11888;BME280;6003;42.756;23.130;2023-02-13T05:38:31;151696.50;;;-2.80;100.00
11888;BME280;6003;42.756;23.130;2023-02-13T05:40:58;151699.16;;;-2.79;100.00
11888;BME280;6003;42.756;23.130;2023-02-13T05:43:25;151704.34;;;-2.77;100.00
11888;BME280;6003;42.756;23.130;2023-02-13T05:46:00;151704.34;;;-2.77;100.00
11888;BME280;6003;42.756;23.130;2023-02-13T05:48:27;151713.53;;;-2.73;100.00
11888;BME280;6003;42.756;23.130;2023-02-13T05:50:56;151733.09;;;-2.65;100.00
11888;BME280;6003;42.756;23.130;2023-02-13T05:53:23;151746.19;;;-2.60;100.00
11888;BME280;6003;42.756;23.130;2023-02-13T05:55:50;151772.34;;;-2.50;100.00
11888;BME280;6003;42.756;23.130;2023-02-13T05:58:17;151795.88;;;-2.41;100.00
11888;BME280;6003;42.756;23.130;2023-02-13T06:00:44;151808.94;;;-2.36;100.00
11888;BME280;6003;42.756;23.130;2023-02-13T06:03:12;151816.78;;;-2.33;100.00
11888;BME280;6003;42.756;23.130;2023-02-13T06:05:39;151803.69;;;-2.38;100.00
11888;BME280;6003;42.756;23.130;2023-02-13T06:08:07;151848.16;;;-2.20;100.00
11888;BME280;6003;42.756;23.130;2023-02-13T06:10:34;151842.91;;;-2.22;100.00
11888;BME280;6003;42.756;23.130;2023-02-13T06:13:01;151861.25;;;-2.15;100.00
11888;BME280;6003;42.756;23.130;2023-02-13T06:15:28;151934.47;;;-1.87;100.00
11888;BME280;6003;42.756;23.130;2023-02-13T06:17:55;151980.25;;;-1.69;100.00
11888;BME280;6003;42.756;23.130;2023-02-13T06:20:22;152020.78;;;-1.53;100.00
11888;BME280;6003;42.756;23.130;2023-02-13T06:22:49;152062.66;;;-1.37;100.00
11888;BME280;6003;42.756;23.130;2023-02-13T06:25:18;152101.91;;;-1.21;100.00
11888;BME280;6003;42.756;23.130;2023-02-13T06:27:45;152130.69;;;-1.10;100.00
11888;BME280;6003;42.756;23.130;2023-02-13T06:30:14;152159.50;;;-0.99;100.00
11888;BME280;6003;42.756;23.130;2023-02-13T06:32:41;152170.00;;;-0.95;100.00
11888;BME280;6003;42.756;23.130;2023-02-13T06:35:08;152213.16;;;-0.78;100.00
11888;BME280;6003;42.756;23.130;2023-02-13T06:37:35;152261.63;;;-0.59;100.00
11888;BME280;6003;42.756;23.130;2023-02-13T06:40:04;152287.84;;;-0.49;100.00
11888;BME280;6003;42.756;23.130;2023-02-13T06:42:32;152311.41;;;-0.39;100.00
11888;BME280;6003;42.756;23.130;2023-02-13T06:44:59;152345.44;;;-0.26;100.00
11888;BME280;6003;42.756;23.130;2023-02-13T06:47:26;152366.38;;;-0.18;100.00
11888;BME280;6003;42.756;23.130;2023-02-13T06:49:53;152393.91;;;-0.07;100.00
11888;BME280;6003;42.756;23.130;2023-02-13T06:52:20;152418.78;;;0.03;100.00
11888;BME280;6003;42.756;23.130;2023-02-13T06:54:47;152445.00;;;0.13;100.00
11888;BME280;6003;42.756;23.130;2023-02-13T06:57:14;152463.34;;;0.20;100.00
11888;BME280;6003;42.756;23.130;2023-02-13T06:59:42;152469.88;;;0.22;100.00
11888;BME280;6003;42.756;23.130;2023-02-13T07:02:09;152476.44;;;0.25;100.00
11888;BME280;6003;42.756;23.130;2023-02-13T07:04:36;152511.84;;;0.39;100.00
11888;BME280;6003;42.756;23.130;2023-02-13T07:07:03;152555.09;;;0.56;100.00
11888;BME280;6003;42.756;23.130;2023-02-13T07:09:30;152578.69;;;0.65;100.00
11888;BME280;6003;42.756;23.130;2023-02-13T07:11:58;152549.84;;;0.54;100.00
11888;BME280;6003;42.756;23.130;2023-02-13T07:14:28;152566.88;;;0.60;100.00
11888;BME280;6003;42.756;23.130;2023-02-13T07:16:56;152568.22;;;0.61;100.00
11888;BME280;6003;42.756;23.130;2023-02-13T07:19:23;152548.53;;;0.53;100.00
11888;BME280;6003;42.756;23.130;2023-02-13T07:21:50;152552.50;;;0.55;100.00
11888;BME280;6003;42.756;23.130;2023-02-13T07:24:16;152565.56;;;0.60;100.00
11888;BME280;6003;42.756;23.130;2023-02-13T07:26:43;152577.38;;;0.64;100.00
11888;BME280;6003;42.756;23.130;2023-02-13T07:29:10;152582.63;;;0.66;100.00
11888;BME280;6003;42.756;23.130;2023-02-13T07:31:37;152594.41;;;0.71;100.00
11888;BME280;6003;42.756;23.130;2023-02-13T07:34:06;152615.38;;;0.79;100.00
11888;BME280;6003;42.756;23.130;2023-02-13T07:36:33;152644.25;;;0.90;100.00
11888;BME280;6003;42.756;23.130;2023-02-13T07:39:00;152661.28;;;0.97;100.00
11888;BME280;6003;42.756;23.130;2023-02-13T07:41:27;152644.25;;;0.90;100.00
11888;BME280;6003;42.756;23.130;2023-02-13T07:43:54;152657.38;;;0.96;100.00
11888;BME280;6003;42.756;23.130;2023-02-13T07:46:20;152649.50;;;0.93;100.00
11888;BME280;6003;42.756;23.130;2023-02-13T07:48:47;152691.44;;;1.09;100.00
11888;BME280;6003;42.756;23.130;2023-02-13T07:51:16;152696.69;;;1.11;100.00
11888;BME280;6003;42.756;23.130;2023-02-13T07:53:42;152696.69;;;1.11;100.00
11888;BME280;6003;42.756;23.130;2023-02-13T07:56:10;152709.81;;;1.16;100.00
11888;BME280;6003;42.756;23.130;2023-02-13T07:58:37;152736.03;;;1.26;100.00
11888;BME280;6003;42.756;23.130;2023-02-13T08:01:06;152745.22;;;1.30;100.00
11888;BME280;6003;42.756;23.130;2023-02-13T08:03:33;152746.53;;;1.30;100.00
11888;BME280;6003;42.756;23.130;2023-02-13T08:06:00;152739.97;;;1.28;100.00
11888;BME280;6003;42.756;23.130;2023-02-13T08:08:28;152780.63;;;1.44;100.00
11888;BME280;6003;42.756;23.130;2023-02-13T08:10:56;152796.41;;;1.50;100.00
11888;BME280;6003;42.756;23.130;2023-02-13T08:13:41;152792.44;;;1.48;100.00
11888;BME280;6003;42.756;23.130;2023-02-13T08:16:08;152817.34;;;1.58;100.00
11888;BME280;6003;42.756;23.130;2023-02-13T08:18:35;152837.03;;;1.66;100.00
11888;BME280;6003;42.756;23.130;2023-02-13T08:21:02;152820.00;;;1.59;100.00
11888;BME280;6003;42.756;23.130;2023-02-13T08:23:31;152804.25;;;1.53;100.00
11888;BME280;6003;42.756;23.130;2023-02-13T08:25:59;152791.13;;;1.48;100.00
11888;BME280;6003;42.756;23.130;2023-02-13T08:28:26;152809.47;;;1.55;100.00
11888;BME280;6003;42.756;23.130;2023-02-13T08:30:54;152796.41;;;1.50;100.00
11888;BME280;6003;42.756;23.130;2023-02-13T08:33:21;152812.13;;;1.56;100.00
11888;BME280;6003;42.756;23.130;2023-02-13T08:35:47;152780.63;;;1.44;100.00
11888;BME280;6003;42.756;23.130;2023-02-13T08:38:14;152812.13;;;1.56;100.00
11888;BME280;6003;42.756;23.130;2023-02-13T08:40:43;152831.78;;;1.64;100.00
11888;BME280;6003;42.756;23.130;2023-02-13T08:43:09;152900.06;;;1.90;100.00
11888;BME280;6003;42.756;23.130;2023-02-13T08:45:36;152917.09;;;1.97;99.26
11888;BME280;6003;42.756;23.130;2023-02-13T08:48:03;152943.31;;;2.07;98.46
11888;BME280;6003;42.756;23.130;2023-02-13T08:50:31;152906.63;;;1.93;98.02
11888;BME280;6003;42.756;23.130;2023-02-13T08:52:58;152914.50;;;1.96;97.98
11888;BME280;6003;42.756;23.130;2023-02-13T08:55:26;152901.34;;;1.91;97.64
11888;BME280;6003;42.756;23.130;2023-02-13T08:57:58;152909.22;;;1.94;97.36
11888;BME280;6003;42.756;23.130;2023-02-13T09:00:25;152880.34;;;1.83;96.82
11888;BME280;6003;42.756;23.130;2023-02-13T09:02:53;152896.09;;;1.89;97.18
11888;BME280;6003;42.756;23.130;2023-02-13T09:05:20;152905.25;;;1.92;96.59
11888;BME280;6003;42.756;23.130;2023-02-13T09:07:47;152876.41;;;1.81;95.41
11888;BME280;6003;42.756;23.130;2023-02-13T09:10:14;152890.81;;;1.87;96.03
11888;BME280;6003;42.756;23.130;2023-02-13T09:12:40;152919.69;;;1.98;97.16
11888;BME280;6003;42.756;23.130;2023-02-13T09:15:10;152964.31;;;2.15;95.55
11888;BME280;6003;42.756;23.130;2023-02-13T09:17:37;152990.59;;;2.25;94.95
11888;BME280;6003;42.756;23.130;2023-02-13T09:20:04;152998.47;;;2.29;94.02
11888;BME280;6003;42.756;23.130;2023-02-13T09:22:31;153040.50;;;2.45;93.71
11888;BME280;6003;42.756;23.130;2023-02-13T09:24:58;153048.38;;;2.48;94.23
11888;BME280;6003;42.756;23.130;2023-02-13T09:27:28;153079.88;;;2.60;94.61
11888;BME280;6003;42.756;23.130;2023-02-13T09:29:55;153070.69;;;2.57;93.45
11888;BME280;6003;42.756;23.130;2023-02-13T09:32:23;153078.56;;;2.60;92.58
11888;BME280;6003;42.756;23.130;2023-02-13T09:34:50;153133.72;;;2.81;92.21
11888;BME280;6003;42.756;23.130;2023-02-13T09:37:18;153106.16;;;2.70;91.65
11888;BME280;6003;42.756;23.130;2023-02-13T09:39:44;153090.34;;;2.64;91.52
11888;BME280;6003;42.756;23.130;2023-02-13T09:42:16;153106.16;;;2.70;91.29
11888;BME280;6003;42.756;23.130;2023-02-13T09:44:49;153086.44;;;2.63;92.05
11888;BME280;6003;42.756;23.130;2023-02-13T09:47:22;153117.94;;;2.75;92.59
11888;BME280;6003;42.756;23.130;2023-02-13T09:49:56;153087.75;;;2.63;91.39
11888;BME280;6003;42.756;23.130;2023-02-13T09:52:25;153119.25;;;2.76;90.47
11888;BME280;6003;42.756;23.130;2023-02-13T09:54:54;153093.03;;;2.65;90.89
11888;BME280;6003;42.756;23.130;2023-02-13T09:57:26;153163.91;;;2.93;93.09
11888;BME280;6003;42.756;23.130;2023-02-13T09:59:59;153255.91;;;3.29;91.98
11888;BME280;6003;42.756;23.130;2023-02-13T10:02:39;153346.56;;;3.64;92.07
11888;BME280;6003;42.756;23.130;2023-02-13T10:05:21;153294.00;;;3.44;86.40
11888;BME280;6003;42.756;23.130;2023-02-13T10:07:56;153313.72;;;3.51;85.98
11888;BME280;6003;42.756;23.130;2023-02-13T10:10:31;153296.59;;;3.45;85.46
11888;BME280;6003;42.756;23.130;2023-02-13T10:13:17;153332.09;;;3.58;86.12
11888;BME280;6003;42.756;23.130;2023-02-13T10:15:53;153389.94;;;3.81;86.53
11888;BME280;6003;42.756;23.130;2023-02-13T10:18:29;153403.09;;;3.86;84.15
11888;BME280;6003;42.756;23.130;2023-02-13T10:21:02;153474.06;;;4.14;85.14
11888;BME280;6003;42.756;23.130;2023-02-13T10:23:34;153504.28;;;4.25;83.25
11888;BME280;6003;42.756;23.130;2023-02-13T10:26:07;153521.44;;;4.32;83.49
11888;BME280;6003;42.756;23.130;2023-02-13T10:28:40;153581.91;;;4.56;83.38
11888;BME280;6003;42.756;23.130;2023-02-13T10:31:12;153579.31;;;4.55;80.74
11888;BME280;6003;42.756;23.130;2023-02-13T10:33:46;153621.34;;;4.71;82.60
11888;BME280;6003;42.756;23.130;2023-02-13T10:36:18;153666.09;;;4.88;80.35
11888;BME280;6003;42.756;23.130;2023-02-13T10:38:55;153710.81;;;5.06;79.53
11888;BME280;6003;42.756;23.130;2023-02-13T10:41:24;153699.00;;;5.01;78.13
11888;BME280;6003;42.756;23.130;2023-02-13T10:44:07;153755.56;;;5.23;80.60
11888;BME280;6003;42.756;23.130;2023-02-13T10:46:45;153745.06;;;5.19;78.64
11888;BME280;6003;42.756;23.130;2023-02-13T10:49:44;153705.59;;;5.04;77.19
11888;BME280;6003;42.756;23.130;2023-02-13T10:52:41;153730.56;;;5.13;78.49
11888;BME280;6003;42.756;23.130;2023-02-13T10:55:21;153666.09;;;4.88;77.39
11888;BME280;6003;42.756;23.130;2023-02-13T10:58:07;153681.88;;;4.94;77.42
11888;BME280;6003;42.756;23.130;2023-02-13T11:00:42;153731.88;;;5.14;77.64
11888;BME280;6003;42.756;23.130;2023-02-13T11:03:18;153752.94;;;5.22;76.21
11888;BME280;6003;42.756;23.130;2023-02-13T11:05:46;153739.78;;;5.17;76.69
11888;BME280;6003;42.756;23.130;2023-02-13T11:08:19;153731.88;;;5.14;75.18
11888;BME280;6003;42.756;23.130;2023-02-13T11:10:47;153745.06;;;5.19;74.00
11888;BME280;6003;42.756;23.130;2023-02-13T11:13:17;153762.16;;;5.26;74.59
11888;BME280;6003;42.756;23.130;2023-02-13T11:16:02;153713.47;;;5.07;75.43
11888;BME280;6003;42.756;23.130;2023-02-13T11:18:31;153742.44;;;5.18;75.36
11888;BME280;6003;42.756;23.130;2023-02-13T11:21:05;153763.47;;;5.26;74.75
11888;BME280;6003;42.756;23.130;2023-02-13T11:23:41;153789.78;;;5.36;72.10
11888;BME280;6003;42.756;23.130;2023-02-13T11:26:11;153766.13;;;5.27;72.02
11888;BME280;6003;42.756;23.130;2023-02-13T11:28:47;153747.66;;;5.20;72.61
11888;BME280;6003;42.756;23.130;2023-02-13T11:31:23;153755.56;;;5.23;72.27
11888;BME280;6003;42.756;23.130;2023-02-13T11:33:51;153750.34;;;5.21;72.18
11888;BME280;6003;42.756;23.130;2023-02-13T11:36:24;153742.44;;;5.18;71.10
11888;BME280;6003;42.756;23.130;2023-02-13T11:39:03;153792.41;;;5.37;73.21
11888;BME280;6003;42.756;23.130;2023-02-13T11:41:36;153783.22;;;5.34;72.37
11888;BME280;6003;42.756;23.130;2023-02-13T11:44:18;153802.97;;;5.41;74.31
11888;BME280;6003;42.756;23.130;2023-02-13T11:46:49;153789.78;;;5.36;73.63
11888;BME280;6003;42.756;23.130;2023-02-13T11:49:18;153805.59;;;5.42;71.34
11888;BME280;6003;42.756;23.130;2023-02-13T11:51:46;153776.63;;;5.31;70.75
11888;BME280;6003;42.756;23.130;2023-02-13T11:54:30;153795.06;;;5.38;72.48
11888;BME280;6003;42.756;23.130;2023-02-13T11:56:59;153802.97;;;5.41;71.72
11888;BME280;6003;42.756;23.130;2023-02-13T11:59:30;153802.97;;;5.41;71.26
11888;BME280;6003;42.756;23.130;2023-02-13T12:02:02;153833.25;;;5.53;71.43
11888;BME280;6003;42.756;23.130;2023-02-13T12:04:29;153845.06;;;5.58;70.99
11888;BME280;6003;42.756;23.130;2023-02-13T12:06:59;153813.47;;;5.46;70.33
11888;BME280;6003;42.756;23.130;2023-02-13T12:09:29;153802.97;;;5.41;71.60
11888;BME280;6003;42.756;23.130;2023-02-13T12:11:57;153822.69;;;5.49;71.60
11888;BME280;6003;42.756;23.130;2023-02-13T12:14:33;153845.06;;;5.58;70.34
11888;BME280;6003;42.756;23.130;2023-02-13T12:17:06;153870.09;;;5.68;73.27
11888;BME280;6003;42.756;23.130;2023-02-13T12:19:38;153867.44;;;5.66;70.55
11888;BME280;6003;42.756;23.130;2023-02-13T12:22:17;153887.22;;;5.74;71.81
11888;BME280;6003;42.756;23.130;2023-02-13T12:27:45;153852.97;;;5.61;70.82
11888;BME280;6003;42.756;23.130;2023-02-13T12:30:40;153863.50;;;5.65;72.80
11888;BME280;6003;42.756;23.130;2023-02-13T12:33:20;153825.34;;;5.50;71.00
11888;BME280;6003;42.756;23.130;2023-02-13T12:35:56;153827.97;;;5.51;72.30
11888;BME280;6003;42.756;23.130;2023-02-13T12:38:43;153838.53;;;5.55;73.06
11888;BME280;6003;42.756;23.130;2023-02-13T12:41:34;153821.38;;;5.49;70.71
11888;BME280;6003;42.756;23.130;2023-02-13T12:44:36;153855.63;;;5.62;73.27
11888;BME280;6003;42.756;23.130;2023-02-13T12:47:13;153895.09;;;5.77;72.40
11888;BME280;6003;42.756;23.130;2023-02-13T12:52:58;153924.06;;;5.88;71.42
11888;BME280;6003;42.756;23.130;2023-02-13T12:55:55;153903.00;;;5.80;71.04
11888;BME280;6003;42.756;23.130;2023-02-13T12:58:47;153881.94;;;5.72;71.48
11888;BME280;6003;42.756;23.130;2023-02-13T13:01:25;153906.97;;;5.82;72.21
11888;BME280;6003;42.756;23.130;2023-02-13T13:04:07;153896.41;;;5.78;70.56
11888;BME280;6003;42.756;23.130;2023-02-13T13:09:44;153887.22;;;5.74;71.03
11888;BME280;6003;42.756;23.130;2023-02-13T13:15:40;153860.91;;;5.64;71.51
11888;BME280;6003;42.756;23.130;2023-02-13T13:18:18;153892.50;;;5.76;73.19
11888;BME280;6003;42.756;23.130;2023-02-13T13:20:57;153880.63;;;5.72;71.43
11888;BME280;6003;42.756;23.130;2023-02-13T13:23:31;153874.03;;;5.69;73.43
11888;BME280;6003;42.756;23.130;2023-02-13T13:26:10;153871.41;;;5.68;71.48
11888;BME280;6003;42.756;23.130;2023-02-13T13:28:42;153847.72;;;5.59;71.60
11888;BME280;6003;42.756;23.130;2023-02-13T13:31:12;153847.72;;;5.59;71.94
11888;BME280;6003;42.756;23.130;2023-02-13T13:33:42;153867.44;;;5.66;72.94